createdAt,value
2019-05-11T00:01:12.949Z,10.82
2019-05-11T00:03:41.821Z,11.35
2019-05-11T00:06:10.685Z,10.63
2019-05-11T00:08:39.465Z,9.93
2019-05-11T00:11:08.273Z,10.10
2019-05-11T00:13:37.141Z,10.68
2019-05-11T00:16:05.888Z,10.40
2019-05-11T00:18:34.678Z,10.48
2019-05-11T00:21:03.497Z,10.72
2019-05-11T00:23:32.317Z,10.05
2019-05-11T00:26:01.095Z,10.43
2019-05-11T00:28:29.963Z,11.03
2019-05-11T00:30:58.789Z,11.73
2019-05-11T00:33:27.629Z,10.40
2019-05-11T00:35:56.467Z,10.88
2019-05-11T00:38:25.296Z,10.90
2019-05-11T00:40:54.133Z,11.00
2019-05-11T00:43:22.945Z,10.15
2019-05-11T00:45:51.792Z,10.50
2019-05-11T00:48:20.641Z,11.48
2019-05-11T00:50:49.483Z,11.28
2019-05-11T00:53:18.320Z,10.70
2019-05-11T00:55:47.175Z,11.28
2019-05-11T00:58:16.024Z,11.80
2019-05-11T01:00:44.822Z,10.40
2019-05-11T01:03:13.660Z,11.88
2019-05-11T01:05:42.811Z,10.13
2019-05-11T01:08:11.632Z,9.15
2019-05-11T01:10:42.507Z,8.80
2019-05-11T01:13:10.985Z,10.10
2019-05-11T01:15:39.753Z,9.95
2019-05-11T01:18:08.587Z,8.30
2019-05-11T01:20:37.423Z,8.83
2019-05-11T01:23:06.269Z,8.38
2019-05-11T01:25:35.099Z,8.50
2019-05-11T01:28:04.031Z,7.35
2019-05-11T01:30:32.871Z,8.25
2019-05-11T01:33:01.709Z,7.95
2019-05-11T01:35:30.529Z,7.70
2019-05-11T01:37:59.418Z,7.83
2019-05-11T01:40:28.293Z,7.78
2019-05-11T01:42:57.095Z,7.15
2019-05-11T01:45:25.864Z,8.35
2019-05-11T01:47:54.636Z,7.55
2019-05-11T01:50:23.492Z,8.18
2019-05-11T01:52:52.319Z,7.65
2019-05-11T01:55:21.172Z,7.97
2019-05-11T01:57:50.025Z,8.35
2019-05-11T02:00:18.987Z,9.73
2019-05-11T02:02:53.710Z,8.50
2019-05-11T02:05:29.057Z,9.50
2019-05-11T02:07:59.303Z,8.10
2019-05-11T02:10:28.404Z,8.85
2019-05-11T02:12:57.276Z,9.63
2019-05-11T02:15:26.114Z,8.35
2019-05-11T02:17:54.962Z,9.30
2019-05-11T02:20:23.808Z,14.68
2019-05-11T02:22:52.588Z,9.35
2019-05-11T02:25:21.457Z,8.93
2019-05-11T02:27:50.290Z,9.35
2019-05-11T02:30:19.424Z,26.45
2019-05-11T02:32:48.296Z,8.95
2019-05-11T02:35:17.125Z,8.83
2019-05-11T02:37:45.964Z,8.78
2019-05-11T02:40:15.422Z,8.85
2019-05-11T02:42:44.283Z,8.55
2019-05-11T02:45:13.087Z,8.48
2019-05-11T02:47:42.104Z,9.15
2019-05-11T02:50:11.552Z,10.43
2019-05-11T02:52:40.513Z,9.48
2019-05-11T02:55:09.508Z,9.70
2019-05-11T02:57:38.345Z,9.20
2019-05-11T03:00:10.814Z,9.48
2019-05-11T03:02:39.565Z,9.23
2019-05-11T03:05:08.398Z,9.70
2019-05-11T03:07:37.283Z,9.90
2019-05-11T03:10:06.309Z,8.73
2019-05-11T03:12:35.077Z,9.25
2019-05-11T03:15:05.515Z,8.63
2019-05-11T03:17:34.408Z,8.90
2019-05-11T03:20:03.386Z,9.30
2019-05-11T03:22:32.236Z,8.83
2019-05-11T03:25:01.090Z,9.30
2019-05-11T03:27:29.918Z,9.93
2019-05-11T03:30:01.108Z,9.75
2019-05-11T03:32:29.209Z,10.00
2019-05-11T03:34:58.041Z,10.80
2019-05-11T03:37:26.892Z,9.93
2019-05-11T03:39:55.733Z,10.28
2019-05-11T03:42:24.586Z,9.55
2019-05-11T03:44:53.503Z,10.80
2019-05-11T03:47:22.288Z,10.08
2019-05-11T03:49:51.117Z,10.20
2019-05-11T03:52:19.906Z,11.45
2019-05-11T03:54:48.737Z,10.88
2019-05-11T03:57:17.589Z,11.25
2019-05-11T03:59:46.555Z,10.45
2019-05-11T04:02:16.597Z,11.45
2019-05-11T04:04:45.449Z,11.65
2019-05-11T04:07:14.606Z,11.55
2019-05-11T04:09:43.471Z,10.45
2019-05-11T04:12:12.314Z,9.90
2019-05-11T04:14:41.104Z,11.08
2019-05-11T04:17:09.869Z,10.85
2019-05-11T04:19:38.705Z,10.90
2019-05-11T04:22:07.533Z,10.70
2019-05-11T04:24:36.385Z,10.43
2019-05-11T04:27:05.142Z,11.90
2019-05-11T04:29:33.930Z,11.00
2019-05-11T04:32:02.714Z,13.58
2019-05-11T04:34:31.529Z,10.95
2019-05-11T04:37:00.293Z,10.05
2019-05-11T04:39:29.166Z,11.28
2019-05-11T04:41:57.966Z,11.30
2019-05-11T04:44:27.070Z,11.38
2019-05-11T04:46:56.042Z,10.23
2019-05-11T04:49:24.830Z,12.00
2019-05-11T04:51:53.675Z,12.50
2019-05-11T04:54:22.577Z,12.37
2019-05-11T04:56:51.404Z,12.80
2019-05-11T04:59:20.197Z,12.98
2019-05-11T05:01:49.052Z,12.70
2019-05-11T05:04:17.919Z,13.48
2019-05-11T05:06:58.964Z,11.70
2019-05-11T05:09:17.240Z,11.18
2019-05-11T05:11:46.075Z,10.50
2019-05-11T05:14:14.928Z,9.93
2019-05-11T05:16:43.769Z,8.30
2019-05-11T05:19:12.611Z,10.70
2019-05-11T05:21:41.485Z,8.78
2019-05-11T05:24:10.318Z,10.85
2019-05-11T05:26:39.228Z,8.05
2019-05-11T05:29:08.086Z,8.25
2019-05-11T05:31:36.925Z,8.30
2019-05-11T05:34:05.718Z,9.50
2019-05-11T05:36:34.541Z,8.88
2019-05-11T05:39:08.613Z,9.05
2019-05-11T05:41:35.442Z,8.38
2019-05-11T05:44:04.316Z,8.75
2019-05-11T05:46:33.268Z,9.48
2019-05-11T05:49:02.084Z,10.23
2019-05-11T05:51:31.049Z,10.08
2019-05-11T05:53:59.911Z,9.00
2019-05-11T05:56:28.761Z,10.50
2019-05-11T05:58:57.711Z,10.38
2019-05-11T06:01:26.553Z,10.13
2019-05-11T06:03:55.456Z,11.00
2019-05-11T06:06:24.374Z,11.68
2019-05-11T06:08:53.204Z,11.53
2019-05-11T06:11:22.014Z,10.85
2019-05-11T06:13:50.760Z,10.18
2019-05-11T06:16:19.519Z,10.60
2019-05-11T06:18:51.363Z,12.28
2019-05-11T06:21:20.249Z,12.40
2019-05-11T06:23:50.584Z,10.30
2019-05-11T06:26:20.156Z,10.88
2019-05-11T06:28:49.391Z,14.47
2019-05-11T06:31:18.332Z,10.53
2019-05-11T06:33:47.598Z,15.05
2019-05-11T06:36:17.992Z,37.60
2019-05-11T06:38:46.856Z,29.65
2019-05-11T06:41:15.772Z,26.40
2019-05-11T06:43:59.552Z,23.00
2019-05-11T06:46:15.617Z,19.15
2019-05-11T06:48:44.649Z,16.90
2019-05-11T06:51:13.414Z,17.42
2019-05-11T06:53:42.443Z,15.40
2019-05-11T06:56:11.294Z,16.23
2019-05-11T06:58:40.617Z,16.50
2019-05-11T07:01:09.370Z,13.08
2019-05-11T07:03:38.341Z,12.53
2019-05-11T07:06:07.436Z,12.85
2019-05-11T07:08:36.271Z,13.45
2019-05-11T07:11:05.168Z,12.50
2019-05-11T07:13:34.109Z,12.70
2019-05-11T07:16:02.945Z,10.13
2019-05-11T07:18:32.017Z,10.25
2019-05-11T07:21:00.787Z,9.73
2019-05-11T07:23:29.813Z,11.08
2019-05-11T07:26:00.295Z,11.15
2019-05-11T07:28:29.325Z,10.53
2019-05-11T07:30:58.147Z,11.15
2019-05-11T07:33:28.691Z,9.83
2019-05-11T07:35:58.326Z,11.38
2019-05-11T07:38:27.948Z,9.68
2019-05-11T07:40:58.201Z,8.85
2019-05-11T07:43:28.780Z,9.08
2019-05-11T07:45:58.423Z,9.60
2019-05-11T07:48:27.988Z,9.35
2019-05-11T07:50:58.402Z,9.60
2019-05-11T07:53:28.055Z,10.00
2019-05-11T07:55:57.727Z,8.63
2019-05-11T07:58:28.535Z,8.48
2019-05-11T08:00:58.274Z,9.23
2019-05-11T08:03:28.399Z,9.68
2019-05-11T08:06:02.478Z,8.58
2019-05-11T08:08:29.399Z,7.97
2019-05-11T08:10:58.767Z,8.98
2019-05-11T08:13:28.731Z,8.63
2019-05-11T08:15:57.929Z,9.18
2019-05-11T08:18:28.160Z,8.10
2019-05-11T08:20:58.322Z,7.67
2019-05-11T08:23:28.566Z,7.30
2019-05-11T08:25:58.219Z,6.35
2019-05-11T08:28:28.789Z,6.85
2019-05-11T08:30:58.018Z,7.05
2019-05-11T08:33:28.394Z,6.65
2019-05-11T08:35:58.255Z,6.50
2019-05-11T08:38:28.555Z,5.83
2019-05-11T08:40:59.178Z,6.50
2019-05-11T08:43:28.604Z,12.75
2019-05-11T08:45:58.010Z,6.10
2019-05-11T08:48:28.339Z,6.12
2019-05-11T08:50:58.194Z,5.72
2019-05-11T08:53:33.780Z,5.75
2019-05-11T08:56:02.841Z,6.28
2019-05-11T08:58:32.373Z,7.05
2019-05-11T09:01:01.550Z,5.62
2019-05-11T09:03:31.269Z,5.55
2019-05-11T09:06:00.084Z,5.83
2019-05-11T09:08:28.931Z,5.47
2019-05-11T09:10:58.318Z,5.85
2019-05-11T09:13:28.065Z,5.70
2019-05-11T09:15:58.867Z,5.40
2019-05-11T09:18:32.956Z,5.53
2019-05-11T09:21:04.311Z,5.95
2019-05-11T09:23:37.344Z,5.25
2019-05-11T09:26:03.726Z,6.05
2019-05-11T09:28:32.561Z,5.75
2019-05-11T09:31:01.537Z,5.60
2019-05-11T09:33:30.340Z,5.40
2019-05-11T09:35:59.354Z,5.58
2019-05-11T09:38:28.342Z,5.75
2019-05-11T09:40:58.700Z,5.10
2019-05-11T09:43:28.356Z,5.20
2019-05-11T09:45:58.247Z,5.10
2019-05-11T09:48:28.437Z,6.05
2019-05-11T09:50:58.768Z,5.60
2019-05-11T09:53:28.403Z,5.37
2019-05-11T09:55:58.697Z,5.47
2019-05-11T09:58:30.269Z,10.13
2019-05-11T10:00:58.969Z,12.93
2019-05-11T10:03:28.206Z,15.28
2019-05-11T10:05:58.003Z,14.10
2019-05-11T10:08:28.674Z,17.42
2019-05-11T10:10:58.143Z,13.65
2019-05-11T10:13:27.858Z,12.65
2019-05-11T10:16:04.374Z,12.82
2019-05-11T10:18:28.250Z,11.18
2019-05-11T10:20:58.609Z,13.93
2019-05-11T10:23:27.994Z,14.18
2019-05-11T10:25:58.717Z,14.15
2019-05-11T10:28:28.448Z,13.83
2019-05-11T10:30:58.026Z,13.80
2019-05-11T10:33:28.137Z,13.22
2019-05-11T10:35:58.762Z,13.28
2019-05-11T10:38:28.538Z,14.13
2019-05-11T10:40:58.169Z,15.60
2019-05-11T10:43:28.853Z,14.20
2019-05-11T10:45:58.787Z,12.35
2019-05-11T10:48:28.266Z,13.80
2019-05-11T10:50:57.698Z,15.08
2019-05-11T10:53:27.812Z,15.23
2019-05-11T10:55:58.174Z,15.30
2019-05-11T10:58:28.503Z,14.87
2019-05-11T11:00:58.241Z,14.20
2019-05-11T11:03:28.413Z,13.48
2019-05-11T11:05:58.083Z,13.93
2019-05-11T11:08:27.832Z,14.05
2019-05-11T11:10:58.566Z,14.07
2019-05-11T11:13:28.118Z,12.65
2019-05-11T11:15:58.150Z,11.57
2019-05-11T11:18:28.757Z,12.45
2019-05-11T11:20:58.151Z,12.30
2019-05-11T11:23:28.493Z,10.72
2019-05-11T11:25:58.569Z,11.83
2019-05-11T11:28:28.036Z,12.03
2019-05-11T11:30:58.438Z,12.28
2019-05-11T11:33:27.778Z,11.55
2019-05-11T11:35:57.948Z,10.90
2019-05-11T11:38:28.522Z,10.38
2019-05-11T11:40:59.161Z,9.65
2019-05-11T11:43:28.723Z,9.65
2019-05-11T11:45:58.060Z,10.13
2019-05-11T11:48:28.047Z,11.50
2019-05-11T11:50:58.521Z,12.07
2019-05-11T11:53:27.942Z,10.78
2019-05-11T11:55:58.738Z,11.83
2019-05-11T11:58:27.780Z,10.68
2019-05-11T12:00:58.702Z,11.28
2019-05-11T12:03:27.679Z,10.32
2019-05-11T12:05:58.185Z,10.88
2019-05-11T12:08:28.226Z,11.53
2019-05-11T12:10:58.899Z,11.43
2019-05-11T12:13:29.688Z,10.93
2019-05-11T12:15:58.563Z,11.60
2019-05-11T12:18:28.648Z,10.78
2019-05-11T12:20:58.589Z,11.85
2019-05-11T12:23:28.510Z,11.20
2019-05-11T12:25:58.090Z,12.20
2019-05-11T12:28:27.638Z,11.43
2019-05-11T12:30:58.569Z,12.58
2019-05-11T12:33:27.958Z,10.75
2019-05-11T12:35:58.700Z,11.85
2019-05-11T12:38:27.723Z,11.80
2019-05-11T12:40:57.900Z,11.93
2019-05-11T12:43:27.845Z,11.93
2019-05-11T12:45:58.552Z,8.60
2019-05-11T12:48:28.458Z,11.95
2019-05-11T12:50:58.821Z,11.78
2019-05-11T12:53:28.011Z,10.53
2019-05-11T12:55:58.959Z,11.45
2019-05-11T12:58:28.113Z,10.45
2019-05-11T13:00:58.503Z,10.80
2019-05-11T13:03:27.877Z,11.48
2019-05-11T13:05:58.531Z,9.43
2019-05-11T13:08:27.847Z,9.58
2019-05-11T13:10:58.398Z,10.32
2019-05-11T13:13:28.576Z,10.60
2019-05-11T13:15:58.501Z,10.48
2019-05-11T13:18:27.977Z,9.53
2019-05-11T13:20:58.752Z,8.75
2019-05-11T13:23:27.909Z,9.75
2019-05-11T13:25:58.560Z,9.25
2019-05-11T13:28:28.453Z,9.65
2019-05-11T13:30:58.017Z,9.73
2019-05-11T13:33:28.003Z,9.80
2019-05-11T13:35:57.940Z,8.98
2019-05-11T13:38:28.443Z,10.45
2019-05-11T13:40:59.023Z,9.53
2019-05-11T13:43:28.136Z,9.13
2019-05-11T13:45:58.397Z,10.50
2019-05-11T13:48:28.168Z,9.75
2019-05-11T13:50:58.255Z,9.43
2019-05-11T13:53:27.665Z,10.25
2019-05-11T13:55:58.703Z,10.13
2019-05-11T13:58:27.801Z,10.88
2019-05-11T14:00:58.481Z,10.68
2019-05-11T14:03:28.599Z,11.30
2019-05-11T14:05:58.223Z,9.90
2019-05-11T14:08:27.930Z,9.98
2019-05-11T14:10:58.057Z,12.00
2019-05-11T14:13:28.628Z,11.60
2019-05-11T14:15:58.720Z,10.70
2019-05-11T14:18:28.249Z,13.95
2019-05-11T14:20:58.642Z,12.55
2019-05-11T14:23:30.780Z,12.93
2019-05-11T14:25:58.007Z,11.08
2019-05-11T14:28:28.676Z,11.93
2019-05-11T14:30:57.921Z,11.70
2019-05-11T14:33:28.228Z,12.23
2019-05-11T14:35:57.850Z,11.55
2019-05-11T14:38:28.849Z,14.13
2019-05-11T14:40:58.582Z,12.37
2019-05-11T14:43:27.799Z,10.88
2019-05-11T14:45:57.816Z,10.82
2019-05-11T14:48:29.907Z,11.05
2019-05-11T14:50:59.298Z,12.70
2019-05-11T14:53:28.402Z,14.05
2019-05-11T14:55:58.496Z,13.08
2019-05-11T14:58:27.992Z,13.00
2019-05-11T15:00:58.286Z,14.43
2019-05-11T15:03:28.694Z,13.78
2019-05-11T15:05:58.236Z,17.62
2019-05-11T15:08:28.666Z,16.50
2019-05-11T15:10:57.773Z,20.35
2019-05-11T15:13:28.630Z,15.55
2019-05-11T15:15:58.640Z,15.35
2019-05-11T15:18:36.054Z,15.00
2019-05-11T15:20:58.366Z,15.38
2019-05-11T15:23:28.441Z,20.40
2019-05-11T15:25:58.689Z,15.85
2019-05-11T15:28:28.537Z,15.08
2019-05-11T15:30:58.749Z,17.52
2019-05-11T15:33:31.154Z,17.05
2019-05-11T15:35:59.992Z,15.78
2019-05-11T15:38:28.841Z,15.65
2019-05-11T15:40:58.008Z,16.65
2019-05-11T15:43:28.286Z,15.43
2019-05-11T15:45:57.886Z,15.48
2019-05-11T15:48:26.900Z,14.83
2019-05-11T15:50:57.755Z,15.20
2019-05-11T15:53:26.216Z,15.80
2019-05-11T15:55:55.043Z,15.68
2019-05-11T15:58:23.888Z,15.98
2019-05-11T16:00:52.713Z,15.43
2019-05-11T16:03:21.507Z,15.48
2019-05-11T16:05:53.024Z,16.12
2019-05-11T16:08:21.853Z,17.12
2019-05-11T16:10:51.059Z,15.72
2019-05-11T16:13:20.278Z,15.93
2019-05-11T16:15:49.107Z,15.75
2019-05-11T16:18:18.905Z,16.75
2019-05-11T16:20:50.215Z,16.35
2019-05-11T16:23:20.264Z,16.73
2019-05-11T16:25:49.665Z,15.53
2019-05-11T16:28:19.263Z,16.48
2019-05-11T16:30:48.335Z,16.70
2019-05-11T16:33:18.044Z,17.07
2019-05-11T16:35:49.036Z,17.10
2019-05-11T16:38:18.821Z,16.62
2019-05-11T16:40:48.088Z,18.23
2019-05-11T16:43:18.984Z,20.32
2019-05-11T16:45:48.859Z,21.87
2019-05-11T16:48:18.461Z,21.12
2019-05-11T16:50:47.640Z,19.87
2019-05-11T16:53:18.113Z,22.20
2019-05-11T16:55:48.639Z,21.45
2019-05-11T16:58:19.943Z,21.57
2019-05-11T17:00:49.024Z,23.52
2019-05-11T17:03:18.203Z,23.42
2019-05-11T17:05:48.437Z,23.92
2019-05-11T17:08:18.677Z,26.40
2019-05-11T17:10:59.147Z,25.17
2019-05-11T17:13:28.301Z,23.83
2019-05-11T17:15:58.295Z,25.80
2019-05-11T17:18:28.401Z,26.27
2019-05-11T17:20:59.441Z,25.05
2019-05-11T17:23:30.926Z,25.95
2019-05-11T17:25:58.861Z,25.25
2019-05-11T17:28:27.641Z,24.27
2019-05-11T17:30:58.655Z,23.73
2019-05-11T17:33:38.251Z,23.12
2019-05-11T17:36:08.425Z,26.07
2019-05-11T17:38:38.968Z,25.75
2019-05-11T17:41:08.529Z,22.70
2019-05-11T17:43:38.604Z,26.12
2019-05-11T17:46:08.189Z,26.27
2019-05-11T17:48:38.811Z,23.40
2019-05-11T17:51:20.651Z,22.27
2019-05-11T17:53:39.271Z,21.52
2019-05-11T17:56:08.033Z,20.92
2019-05-11T17:58:37.891Z,23.55
2019-05-11T18:01:09.187Z,22.80
2019-05-11T18:03:38.498Z,24.02
2019-05-11T18:06:08.550Z,21.73
2019-05-11T18:08:37.515Z,20.37
2019-05-11T18:11:08.406Z,21.20
2019-05-11T18:13:38.968Z,20.57
2019-05-11T18:16:08.516Z,19.35
2019-05-11T18:18:37.886Z,20.32
2019-05-11T18:21:08.473Z,19.42
2019-05-11T18:23:38.752Z,18.75
2019-05-11T18:26:08.851Z,18.42
2019-05-11T18:28:37.969Z,17.95
2019-05-11T18:31:06.844Z,19.40
2019-05-11T18:33:38.039Z,19.10
2019-05-11T18:36:15.433Z,18.07
2019-05-11T18:38:44.268Z,18.98
2019-05-11T18:41:14.609Z,17.15
2019-05-11T18:43:43.562Z,19.25
2019-05-11T18:46:12.747Z,19.50
2019-05-11T18:48:41.687Z,19.12
2019-05-11T18:51:10.499Z,16.95
2019-05-11T18:53:39.303Z,17.50
2019-05-11T18:56:09.326Z,17.95
2019-05-11T18:58:39.661Z,18.00
2019-05-11T19:01:08.488Z,17.05
2019-05-11T19:03:38.501Z,19.05
2019-05-11T19:06:09.462Z,17.77
2019-05-11T19:08:38.503Z,17.45
2019-05-11T19:11:09.337Z,19.52
2019-05-11T19:13:38.732Z,18.82
2019-05-11T19:16:08.641Z,19.20
2019-05-11T19:18:38.763Z,20.40
2019-05-11T19:21:09.199Z,20.97
2019-05-11T19:23:38.262Z,20.85
2019-05-11T19:26:08.351Z,23.35
2019-05-11T19:28:38.462Z,21.95
2019-05-11T19:31:08.262Z,24.23
2019-05-11T19:33:38.297Z,25.92
2019-05-11T19:36:08.425Z,25.52
2019-05-11T19:38:38.803Z,24.20
2019-05-11T19:41:08.067Z,32.63
2019-05-11T19:43:38.156Z,25.20
2019-05-11T19:46:09.024Z,25.15
2019-05-11T19:48:38.418Z,26.90
2019-05-11T19:51:10.908Z,26.20
2019-05-11T19:53:38.625Z,27.40
2019-05-11T19:56:10.331Z,27.93
2019-05-11T19:58:39.171Z,28.70
2019-05-11T20:01:08.708Z,28.42
2019-05-11T20:03:37.961Z,31.35
2019-05-11T20:06:08.730Z,29.02
2019-05-11T20:08:37.275Z,31.07
2019-05-11T20:11:08.072Z,32.38
2019-05-11T20:13:38.638Z,30.82
2019-05-11T20:16:08.276Z,32.78
2019-05-11T20:18:39.104Z,32.67
2019-05-11T20:21:18.544Z,35.90
2019-05-11T20:23:38.340Z,37.35
2019-05-11T20:26:08.849Z,35.60
2019-05-11T20:28:40.854Z,36.20
2019-05-11T20:31:11.427Z,36.03
2019-05-11T20:33:40.367Z,37.78
2019-05-11T20:36:09.206Z,37.15
2019-05-11T20:38:38.476Z,35.78
2019-05-11T20:41:10.607Z,39.60
2019-05-11T20:43:42.667Z,38.78
2019-05-11T20:46:14.447Z,38.40
2019-05-11T20:48:43.313Z,39.48
2019-05-11T20:51:12.994Z,43.90
2019-05-11T20:53:42.134Z,41.00
2019-05-11T20:56:11.331Z,41.28
2019-05-11T20:58:58.765Z,41.83
2019-05-11T21:01:28.612Z,44.48
2019-05-11T21:03:58.408Z,44.67
2019-05-11T21:06:29.529Z,44.90
2019-05-11T21:08:58.104Z,44.80
2019-05-11T21:11:26.947Z,45.60
2019-05-11T21:13:55.865Z,44.25
2019-05-11T21:16:24.650Z,44.65
2019-05-11T21:18:53.514Z,45.33
2019-05-11T21:21:22.245Z,48.80
2019-05-11T21:23:51.097Z,46.50
2019-05-11T21:26:19.910Z,45.90
2019-05-11T21:28:48.812Z,42.40
2019-05-11T21:31:18.623Z,45.10
2019-05-11T21:33:47.567Z,43.42
2019-05-11T21:36:18.074Z,42.27
2019-05-11T21:38:48.298Z,41.73
2019-05-11T21:41:17.329Z,44.03
2019-05-11T21:43:48.198Z,44.48
2019-05-11T21:46:18.074Z,43.25
2019-05-11T21:48:47.842Z,41.48
2019-05-11T21:51:18.100Z,41.70
2019-05-11T21:53:48.688Z,40.92
2019-05-11T21:56:18.816Z,41.75
2019-05-11T21:58:47.933Z,39.30
2019-05-11T22:01:20.048Z,38.85
2019-05-11T22:03:47.900Z,40.05
2019-05-11T22:06:16.949Z,38.00
2019-05-11T22:08:48.230Z,37.80
2019-05-11T22:11:18.013Z,39.13
2019-05-11T22:13:48.458Z,38.13
2019-05-11T22:16:17.519Z,38.78
2019-05-11T22:18:48.411Z,38.25
2019-05-11T22:21:18.747Z,37.05
2019-05-11T22:23:50.633Z,36.93
2019-05-11T22:26:18.150Z,36.73
2019-05-11T22:28:48.139Z,36.88
2019-05-11T22:31:18.299Z,36.88
2019-05-11T22:33:48.038Z,37.40
2019-05-11T22:36:16.968Z,33.65
2019-05-11T22:38:48.130Z,34.27
2019-05-11T22:41:18.085Z,33.92
2019-05-11T22:43:48.590Z,32.60
2019-05-11T22:46:17.816Z,33.92
2019-05-11T22:48:48.415Z,38.60
2019-05-11T22:51:18.321Z,35.73
2019-05-11T22:53:50.317Z,37.48
2019-05-11T22:56:19.916Z,36.77
2019-05-11T22:58:49.985Z,34.80
2019-05-11T23:01:19.013Z,34.20
2019-05-11T23:03:47.784Z,33.73
2019-05-11T23:06:18.063Z,33.58
2019-05-11T23:08:48.338Z,33.85
2019-05-11T23:11:17.991Z,33.00
2019-05-11T23:13:47.951Z,34.15
2019-05-11T23:16:18.055Z,32.25
2019-05-11T23:18:48.110Z,33.75
2019-05-11T23:21:16.972Z,32.67
2019-05-11T23:23:47.689Z,33.70
2019-05-11T23:26:17.855Z,31.82
2019-05-11T23:28:48.654Z,32.90
2019-05-11T23:31:17.359Z,32.35
2019-05-11T23:33:46.212Z,30.85
2019-05-11T23:36:15.029Z,30.12
2019-05-11T23:38:43.870Z,31.33
2019-05-11T23:41:24.094Z,30.15
2019-05-11T23:43:43.141Z,27.40
2019-05-11T23:46:11.981Z,26.00
2019-05-11T23:48:40.813Z,28.47
2019-05-11T23:51:09.677Z,23.70
2019-05-11T23:53:38.877Z,24.50
2019-05-11T23:56:07.690Z,24.45
2019-05-11T23:58:38.961Z,23.60
